Latest Weather Observations for Sydney Olympic Park

IDN60801

Issued at 6:05 pm EDT Wednesday 26 November 2014 (issued every 30 minutes, with the page automatically refreshed every 10 minutes)

About weather observations | Map of weather stations | Latest weather observations for NSW | Other Formats
Station Details ID: 066212 Name: SYDNEY OLYMPIC PARK AWS (ARCHERY CENTRE) Lat: -33.83 Lon: 151.07 Height: 4.0 m
Data from the previous 72 hours. | See also: Recent months at Sydney Olympic Park
Date/Time
EDT
Temp
°C
App
Temp
°C
Dew
Point
Rel
Hum
%
Delta-T
°C
Wind Press
QNH
hPa
Press
MSL
hPa
Rain
since 9 am
mm
Dir
 
Spd
km/h
Gust
km/h
Spd
kts
Gust
kts
26/06:00pm 23.2 23.1 17.0 68 3.8 ENE 13 26 7 14 - - 0.0
26/05:30pm 23.7 23.3 17.2 67 4.0 ENE 15 26 8 14 - - 0.0
26/05:00pm 23.8 22.9 16.8 65 4.3 ENE 17 30 9 16 - - 0.0
26/04:30pm 23.7 23.3 17.2 67 4.0 ENE 15 28 8 15 - - 0.0
26/04:00pm 23.6 23.6 17.1 67 4.0 ENE 13 20 7 11 - - 0.0
26/03:30pm 23.1 23.1 17.1 69 3.7 ENE 13 24 7 13 - - 0.0
26/03:00pm 22.9 22.7 16.7 68 3.8 ENE 13 20 7 11 - - 0.0
26/02:30pm 24.1 23.3 17.1 65 4.3 NE 17 30 9 16 - - 0.0
26/02:00pm 23.5 22.6 16.8 66 4.1 NE 17 30 9 16 - - 0.0
26/01:30pm 23.0 22.8 16.8 68 3.8 E 13 20 7 11 - - 0.0
26/01:00pm 22.3 22.6 15.9 67 3.9 ENE 9 20 5 11 - - 0.0
26/12:30pm 22.0 22.1 15.6 67 3.8 ENE 9 17 5 9 - - 0.0
26/12:00pm 22.1 21.8 15.5 66 3.9 ENE 11 15 6 8 - - 0.0
26/11:30am 21.9 21.4 15.0 65 4.1 E 11 17 6 9 - - 0.0
26/11:00am 21.6 21.3 15.4 68 3.7 NE 11 19 6 10 - - 0.0
26/10:30am 21.9 21.4 14.8 64 4.2 ENE 11 17 6 9 - - 0.0
26/10:00am 21.9 21.2 14.3 62 4.4 ENE 11 20 6 11 - - 0.0
26/09:30am 21.9 21.6 14.5 63 4.3 NE 9 15 5 8 - - 0.0
26/09:00am 21.8 21.3 13.9 61 4.6 NE 9 17 5 9 - - 0.0
26/08:30am 21.4 21.1 13.3 60 4.6 NE 7 13 4 7 - - 0.0
26/08:00am 20.6 19.9 14.3 67 3.7 NNE 11 19 6 10 - - 0.0
26/07:30am 20.2 19.0 13.9 67 3.6 NNE 13 20 7 11 - - 0.0
26/07:00am 19.5 20.5 14.3 72 3.0 NE 2 7 1 4 - - 0.0
26/06:30am 19.3 19.3 14.1 72 3.0 ENE 7 13 4 7 - - 0.0
26/06:00am 19.3 18.9 14.1 72 3.0 E 9 17 5 9 - - 0.0
26/05:30am 19.3 19.3 14.3 73 2.9 NNE 7 11 4 6 - - 0.0
26/05:00am 19.3 19.3 14.3 73 2.9 ENE 7 13 4 7 - - 0.0
26/04:30am 19.1 18.7 14.1 73 2.9 E 9 15 5 8 - - 0.0
26/04:00am 19.3 18.5 14.1 72 3.0 E 11 20 6 11 - - 0.0
26/03:30am 19.5 18.8 14.3 72 3.0 E 11 20 6 11 - - 0.0
26/03:00am 19.6 19.0 14.6 73 2.9 E 11 17 6 9 - - 0.0
26/02:30am 19.6 18.5 14.4 72 3.0 E 13 19 7 10 - - 0.0
26/02:00am 19.7 19.1 14.5 72 3.0 E 11 19 6 10 - - 0.0
26/01:30am 19.8 19.2 14.6 72 3.0 E 11 22 6 12 - - 0.0
26/01:00am 19.9 18.9 14.7 72 3.0 E 13 20 7 11 - - 0.0
26/12:30am 19.9 18.9 14.7 72 3.0 E 13 20 7 11 - - 0.0
26/12:00am 20.0 19.0 14.6 71 3.1 E 13 19 7 10 - - 0.0
 
Date/Time
EDT
Temp
°C
App
Temp
°C
Dew
Point
Rel
Hum
%
Delta-T
°C
Wind Press
QNH
hPa
Press
MSL
hPa
Rain
since 9 am
mm
Dir
 
Spd
km/h
Gust
km/h
Spd
kts
Gust
kts
25/11:30pm 20.0 19.5 15.0 73 2.9 E 11 17 6 9 - - 0.0
25/11:00pm 20.1 19.7 15.1 73 2.9 E 11 17 6 9 - - 0.0
25/10:30pm 20.0 19.6 15.2 74 2.8 ESE 11 17 6 9 - - 0.0
25/10:00pm 20.0 19.1 14.8 72 3.0 E 13 19 7 10 - - 0.0
25/09:30pm 20.1 19.2 14.9 72 3.0 E 13 17 7 9 - - 0.0
25/09:00pm 19.9 19.3 14.5 71 3.1 ESE 11 17 6 9 - - 0.0
25/08:30pm 19.7 19.1 14.5 72 3.0 ESE 11 19 6 10 - - 0.0
25/08:00pm 20.1 18.4 14.7 71 3.2 E 17 24 9 13 - - 0.0
25/07:30pm 20.1 18.3 14.5 70 3.3 E 17 24 9 13 - - 0.0
25/07:00pm 20.4 19.0 14.5 69 3.4 E 15 24 8 13 - - 0.0
25/06:30pm 20.9 18.7 14.5 67 3.7 E 19 26 10 14 - - 0.0
25/06:00pm 21.1 18.7 14.5 66 3.9 E 20 30 11 16 - - 0.0
25/05:30pm 21.2 19.4 14.4 65 4.0 E 17 28 9 15 - - 0.0
25/05:00pm 21.7 19.8 15.1 66 3.9 E 19 28 10 15 - - 0.0
25/04:30pm 21.8 19.1 14.7 64 4.2 E 22 32 12 17 - - 0.0
25/04:00pm 22.2 20.1 14.6 62 4.5 E 19 28 10 15 - - 0.0
25/03:30pm 22.7 20.3 15.3 63 4.4 E 22 32 12 17 - - 0.0
25/03:00pm 22.8 20.8 14.9 61 4.7 E 19 28 10 15 - - 0.0
25/02:30pm 22.6 20.7 15.2 63 4.4 E 19 26 10 14 - - 0.0
25/02:00pm 22.8 20.9 15.1 62 4.6 E 19 24 10 13 - - 0.0
25/01:30pm 22.3 20.9 15.6 66 4.0 SE 17 22 9 12 - - 0.0
25/01:00pm 22.2 20.5 16.2 69 3.6 SE 20 28 11 15 - - 0.0
25/12:30pm 22.6 22.5 16.9 70 3.5 SSE 13 22 7 12 - - 0.0
25/12:00pm 22.8 21.3 14.1 58 5.1 SSE 15 24 8 13 - - 0.0
25/11:30am 23.2 22.2 15.5 62 4.6 SSE 15 20 8 11 - - 0.0
25/11:00am 24.6 21.4 6.8 32 9.3 WSW 13 20 7 11 - - 0.0
25/10:30am 24.5 20.8 6.3 31 9.4 SW 15 26 8 14 - - 0.0
25/10:00am 24.7 20.1 3.9 26 10.3 SW 17 33 9 18 - - 0.0
25/09:30am 24.4 23.1 14.8 55 5.7 SW 15 30 8 16 - - 0.0
25/09:00am 24.2 24.1 17.0 64 4.4 SW 13 24 7 13 - - 5.4
25/08:30am 23.8 28.2 21.3 86 1.6 CALM 0 4 0 2 - - 5.4
25/08:00am 23.8 27.0 21.3 86 1.6 W 6 7 3 4 - - 5.4
25/07:30am 23.3 26.6 21.4 89 1.3 WNW 6 11 3 6 - - 5.4
25/07:00am 22.9 25.3 20.8 88 1.4 WNW 9 15 5 8 - - 5.4
25/06:30am 22.7 24.9 20.4 87 1.5 WNW 9 13 5 7 - - 5.4
25/06:00am 23.1 25.0 19.7 81 2.2 WNW 9 15 5 8 - - 5.4
25/05:30am 23.4 24.3 19.3 78 2.6 NNW 13 22 7 12 - - 5.4
25/05:00am 23.3 24.6 20.1 82 2.1 NW 13 24 7 13 - - 5.4
25/04:30am 23.3 24.4 20.4 84 1.9 NW 15 20 8 11 - - 5.4
25/04:00am 23.6 24.2 20.3 82 2.1 NNW 17 28 9 15 - - 5.4
25/03:30am 23.2 24.7 20.5 85 1.8 NW 13 20 7 11 - - 5.4
25/03:00am 22.7 24.3 20.8 89 1.2 NNW 13 22 7 12 - - 5.4
25/02:30am 22.5 23.6 21.3 93 0.8 N 17 24 9 13 - - 5.2
25/02:00am 22.8 24.1 21.6 93 0.8 NNW 17 24 9 13 - - 5.2
25/01:30am 23.3 25.5 21.9 92 0.9 NNW 13 19 7 10 - - 4.6
25/01:00am 23.3 26.8 22.8 97 0.3 NNW 9 22 5 12 - - 4.6
25/12:30am 22.9 28.0 22.6 98 0.2 CALM 0 0 0 0 - - 4.4
25/12:00am 22.8 27.8 22.5 98 0.2 CALM 0 0 0 0 - - 4.2
 
Date/Time
EDT
Temp
°C
App
Temp
°C
Dew
Point
Rel
Hum
%
Delta-T
°C
Wind Press
QNH
hPa
Press
MSL
hPa
Rain
since 9 am
mm
Dir
 
Spd
km/h
Gust
km/h
Spd
kts
Gust
kts
24/11:30pm 22.8 26.7 22.5 98 0.2 N 6 9 3 5 - - 4.2
24/11:00pm 22.5 26.0 22.2 98 0.2 NNW 7 9 4 5 - - 4.2
24/10:30pm 22.6 27.5 22.3 98 0.2 CALM 0 0 0 0 - - 4.2
24/10:00pm 22.6 27.5 22.3 98 0.2 CALM 0 0 0 0 - - 4.2
24/09:30pm 22.7 27.0 22.0 96 0.5 NNW 2 7 1 4 - - 4.0
24/09:00pm 22.5 27.2 22.0 97 0.3 CALM 0 0 0 0 - - 3.8
24/08:30pm 22.4 26.8 21.4 94 0.7 CALM 0 0 0 0 - - 3.8
24/08:00pm 22.5 27.0 21.5 94 0.7 CALM 0 7 0 4 - - 3.8
24/07:30pm 22.6 25.9 21.4 93 0.8 ESE 6 9 3 5 - - 3.8
24/07:00pm 22.7 25.5 21.5 93 0.8 E 9 15 5 8 - - 3.8
24/06:30pm 23.0 25.3 21.3 90 1.1 ENE 11 17 6 9 - - 3.8
24/06:00pm 23.5 25.7 21.8 90 1.1 E 13 22 7 12 - - 3.8
24/05:30pm 23.3 25.6 22.1 93 0.8 SSE 13 19 7 10 - - 3.8
24/05:00pm 23.5 26.4 23.2 98 0.2 SSE 13 20 7 11 - - 3.8
24/04:30pm 22.9 25.2 22.1 95 0.5 ESE 13 19 7 10 - - 3.8
24/04:19pm 22.9 24.5 22.1 95 0.5 E 17 24 9 13 - - 3.8
24/04:00pm 22.5 24.3 21.8 96 0.5 SSE 15 24 8 13 - - 3.6
24/03:44pm 23.7 26.2 21.0 85 1.8 SSW 9 24 5 13 - - 0.4
24/03:30pm 23.8 24.9 20.5 82 2.1 ESE 15 22 8 12 - - 0.0
24/03:00pm 26.2 26.0 19.8 68 4.2 ESE 20 30 11 16 - - 0.0
24/02:30pm 29.3 30.1 20.7 59 5.7 E 17 26 9 14 - - 0.0
24/02:00pm 29.5 29.7 20.1 57 6.2 E 19 28 10 15 - - 0.0
24/01:30pm 31.1 31.1 19.8 51 7.4 E 19 26 10 14 - - 0.0
24/01:00pm 30.9 32.7 19.6 51 7.4 ESE 9 13 5 7 - - 0.0
24/12:30pm 29.7 32.4 19.4 54 6.7 ESE 4 9 2 5 - - 0.0
24/12:00pm 28.6 31.0 20.1 60 5.6 ENE 7 11 4 6 - - 0.0
24/11:30am 28.8 31.8 21.3 64 5.0 NE 7 11 4 6 - - 0.0
24/11:00am 27.4 30.0 21.2 69 4.1 ENE 9 13 5 7 - - 0.0
24/10:30am 26.2 29.5 20.7 71 3.6 NNE 4 7 2 4 - - 0.0
24/10:00am 24.5 27.2 20.2 77 2.8 ENE 6 11 3 6 - - 0.0
24/09:30am 24.2 27.0 20.5 80 2.4 WSW 6 9 3 5 - - 0.0
24/09:00am 22.8 25.4 20.0 84 1.8 SE 6 11 3 6 - - 1.2
24/08:30am 22.2 24.4 20.3 89 1.2 ESE 9 13 5 7 - - 1.2
24/08:00am 21.9 23.6 20.2 90 1.1 ESE 11 15 6 8 - - 1.2
24/07:30am 21.8 22.7 20.1 90 1.1 E 15 20 8 11 - - 1.2
24/07:00am 21.7 22.3 20.2 91 1.0 E 17 22 9 12 - - 1.2
24/06:30am 21.5 22.0 20.0 91 1.0 E 17 24 9 13 - - 1.2
24/06:00am 21.5 22.0 20.1 92 0.9 ESE 17 28 9 15 - - 1.2
24/05:30am 21.7 23.4 20.9 95 0.5 E 13 19 7 10 - - 1.2
24/05:00am 21.6 23.4 20.4 93 0.8 E 11 15 6 8 - - 1.2
24/04:30am 21.2 24.0 20.4 95 0.5 ESE 6 11 3 6 - - 1.2
24/04:00am 21.0 23.7 20.2 95 0.5 S 6 9 3 5 - - 1.2
24/03:30am 21.2 24.4 20.4 95 0.5 E 4 7 2 4 - - 1.2
24/03:00am 21.3 24.7 20.1 93 0.8 SE 2 9 1 5 - - 1.2
24/02:30am 21.6 24.1 20.2 92 0.9 E 7 11 4 6 - - 1.2
24/02:00am 21.8 25.0 20.4 92 0.9 SSE 4 7 2 4 - - 1.2
24/01:30am 21.8 25.4 20.6 93 0.8 SSE 2 9 1 5 - - 1.2
24/01:00am 21.6 24.8 20.4 93 0.8 W 4 9 2 5 - - 1.2
24/12:30am 22.2 24.9 20.7 91 1.0 SW 7 9 4 5 - - 1.2
24/12:00am 22.4 25.2 20.9 91 1.0 NNE 7 9 4 5 - - 1.2
 
Date/Time
EDT
Temp
°C
App
Temp
°C
Dew
Point
Rel
Hum
%
Delta-T
°C
Wind Press
QNH
hPa
Press
MSL
hPa
Rain
since 9 am
mm
Dir
 
Spd
km/h
Gust
km/h
Spd
kts
Gust
kts
23/11:30pm 22.1 26.1 20.6 91 1.0 CALM 0 4 0 2 - - 1.2
23/11:00pm 22.0 24.6 20.5 91 1.0 SE 7 13 4 7 - - 1.2
23/10:30pm 22.0 23.1 20.5 91 1.0 ESE 15 20 8 11 - - 1.2
23/10:00pm 22.4 23.2 20.7 90 1.1 E 17 24 9 13 - - 1.2
23/09:30pm 22.6 23.4 20.7 89 1.2 E 17 28 9 15 - - 1.2
23/09:00pm 22.7 23.5 20.6 88 1.4 ESE 17 28 9 15 - - 1.2
23/08:30pm 22.7 22.6 20.8 89 1.2 SE 22 28 12 15 - - 1.2
23/08:00pm 23.0 24.4 21.1 89 1.2 S 15 22 8 12 - - 1.2
23/07:30pm 22.9 24.5 20.8 88 1.4 SSE 13 24 7 13 - - 1.2
23/07:00pm 22.8 23.2 20.9 89 1.2 SE 20 35 11 19 - - 1.2
23/06:30pm 23.8 23.6 21.3 86 1.6 ESE 24 37 13 20 - - 1.2

Other Formats:

Comma delimited format used in spreadsheet applications
http://www.bom.gov.au/fwo/IDN60801/IDN60801.95765.axf

JavaScript Object Notation format (JSON) in row-major order
http://www.bom.gov.au/fwo/IDN60801/IDN60801.95765.json